Hartford, Connecticut
Traffic Map
Current Weather Conditions
Hartford, Connecticut
Clear
Clear
71°
Feels Like: 71°
Wind Chill: 71° Ceiling: Unl
Heat Index: 71° Visibility: 9mi
Dew Point: 70° Wind: 3mph
Humidity: 96% Direction: 150° (SSE)
Pressure: 29.84in Gusts: 0mph
Raw Report DataKHFD 311053Z 15003KT 9SM CLR 22/21 A2984 RMK AO2 SLP103 T02170211
Traffic Incident Summary
Active as of:
Severity:
Category:
InformationThere was an issue retrieving the traffic information for this location. Please try a different location or try again shortly.
Advertisements
Track Severe Weather on mobile